KFXE/FXE METAR and TAF weather

Enter ICAO airport designator
Station Type Date Time Source
KFXE METAR 2020/10/29 15:53 UTC NOAA

KFXE 291553Z 16010KT 10SM SCT028 BKN036 30/24 A2997 RMK AO2 SLP151 T03000239


Station Type Date Time Source
KFXE Decoded METAR 2020/10/29 15:53 UTC NOAA

FORT LAUDERDALE EXECUTIVE, FL, United States (KFXE) 26-12N 080-11W 6M
Oct 29, 2020 - 11:53 AM EDT / 2020.10.29 1553 UTC
Wind: from the SSE (160 degrees) at 12 MPH (10 KT):0
Visibility: 10 mile(s):0
Sky conditions: mostly cloudy
Temperature: 86.0 F (30.0 C)
Heat index: 94.6 F (34.8 C):1
Dew Point: 75.0 F (23.9 C)
Relative Humidity: 69%
Pressure (altimeter): 29.97 in. Hg (1014 hPa)
ob: KFXE 291553Z 16010KT 10SM SCT028 BKN036 30/24 A2997 RMK AO2 SLP151 T03000239
cycle: 16

Station Type Date Time Source
KFXE TAF 2020/10/29 12:34 UTC NOAA

TAF KFXE 291132Z 2912/3012 12008KT P6SM VCSH FEW020 SCT030
FM291500 15012KT P6SM SCT025 SCT050
FM300000 19006KT P6SM FEW025 FEW250

Example: see airport list